Hatton, Washington
Current Conditions -  °F | °C
As of 6:52 PM on Friday 21 Nov 2014 (Local Time) from KMWH Reporting Station
Light Rain Light Rain  
Wind Chill: 29°   Ceiling: 300
Heat Index: 33°   Visibility: 1mi
Dew Point: 32°   Wind: 5mph
Humidity: 96%   Direction: 260°W
Pressure: 29.48"   Gusts: NA
Location:  46.78°N, 118.83°W
Report Text: KMWH 220252Z 26004KT 1SM R32R/5000V6000FT -RA BR OVC003 01/00 A2948 RMK AO2 RAE0155B48UPB0155E48 PRESFR SLP995 P0007 60027 I3000 T00060000 56039
Loading
Personal Weather Stations






























Interactive Weather Map New forecast layout! Learn more

10-Day Weather Forecast

Advertisements
Track Severe Weather on mobile